createdAt,value
2019-05-20T00:01:35.783Z,36.57
2019-05-20T00:04:03.833Z,36.13
2019-05-20T00:06:31.969Z,32.73
2019-05-20T00:08:59.983Z,34.30
2019-05-20T00:11:28.170Z,35.83
2019-05-20T00:13:56.289Z,30.60
2019-05-20T00:16:24.414Z,34.37
2019-05-20T00:18:52.581Z,33.57
2019-05-20T00:21:20.940Z,33.97
2019-05-20T00:23:49.172Z,33.40
2019-05-20T00:26:17.347Z,31.03
2019-05-20T00:28:45.600Z,31.27
2019-05-20T00:31:13.906Z,29.03
2019-05-20T00:33:43.242Z,28.43
2019-05-20T00:36:11.269Z,28.13
2019-05-20T00:38:39.451Z,28.00
2019-05-20T00:41:07.666Z,26.17
2019-05-20T00:43:35.863Z,25.83
2019-05-20T00:46:04.056Z,25.40
2019-05-20T00:48:32.090Z,24.87
2019-05-20T00:51:00.215Z,25.87
2019-05-20T00:53:28.591Z,27.03
2019-05-20T00:55:56.955Z,28.67
2019-05-20T00:58:25.083Z,26.60
2019-05-20T01:00:53.146Z,25.97
2019-05-20T01:03:21.334Z,27.67
2019-05-20T01:05:49.427Z,28.00
2019-05-20T01:08:17.493Z,28.13
2019-05-20T01:10:45.515Z,28.37
2019-05-20T01:13:13.556Z,27.00
2019-05-20T01:15:41.653Z,27.70
2019-05-20T01:18:09.891Z,25.10
2019-05-20T01:20:38.009Z,25.83
2019-05-20T01:23:06.099Z,27.07
2019-05-20T01:25:34.176Z,26.87
2019-05-20T01:28:02.486Z,26.90
2019-05-20T01:30:30.608Z,26.47
2019-05-20T01:33:12.836Z,27.47
2019-05-20T01:35:28.870Z,27.07
2019-05-20T01:37:56.897Z,27.27
2019-05-20T01:40:24.976Z,28.60
2019-05-20T01:42:53.006Z,28.70
2019-05-20T01:45:22.169Z,27.87
2019-05-20T01:47:50.239Z,28.00
2019-05-20T01:50:18.312Z,26.77
2019-05-20T01:52:46.361Z,25.93
2019-05-20T01:55:14.539Z,28.20
2019-05-20T01:57:42.815Z,26.50
2019-05-20T02:00:11.266Z,27.70
2019-05-20T02:02:39.396Z,26.33
2019-05-20T02:05:07.917Z,27.43
2019-05-20T02:07:36.086Z,28.97
2019-05-20T02:10:05.754Z,27.67
2019-05-20T02:12:33.876Z,29.00
2019-05-20T02:15:10.907Z,28.83
2019-05-20T02:17:39.067Z,27.83
2019-05-20T02:20:07.170Z,28.83
2019-05-20T02:22:35.431Z,27.53
2019-05-20T02:25:04.072Z,28.03
2019-05-20T02:27:32.171Z,27.80
2019-05-20T02:30:00.312Z,25.93
2019-05-20T02:32:28.537Z,27.10
2019-05-20T02:34:56.593Z,25.17
2019-05-20T02:37:24.790Z,25.53
2019-05-20T02:39:52.912Z,26.30
2019-05-20T02:42:20.975Z,25.63
2019-05-20T02:44:49.196Z,25.97
2019-05-20T02:47:20.287Z,25.67
2019-05-20T02:49:48.679Z,25.77
2019-05-20T02:52:16.821Z,25.20
2019-05-20T02:54:44.860Z,26.67
2019-05-20T02:57:12.952Z,25.33
2019-05-20T02:59:41.104Z,26.03
2019-05-20T03:02:09.242Z,26.10
2019-05-20T03:04:37.434Z,26.47
2019-05-20T03:07:05.561Z,28.67
2019-05-20T03:09:33.663Z,28.63
2019-05-20T03:12:01.799Z,29.27
2019-05-20T03:14:30.004Z,28.57
2019-05-20T03:16:59.086Z,29.50
2019-05-20T03:19:27.131Z,28.33
2019-05-20T03:21:55.385Z,27.30
2019-05-20T03:24:23.717Z,24.00
2019-05-20T03:26:51.777Z,24.43
2019-05-20T03:29:20.125Z,25.60
2019-05-20T03:31:48.245Z,25.40
2019-05-20T03:34:42.187Z,23.67
2019-05-20T03:36:46.324Z,26.23
2019-05-20T03:39:14.423Z,26.37
2019-05-20T03:41:42.777Z,26.83
2019-05-20T03:44:10.880Z,25.53
2019-05-20T03:46:38.904Z,25.43
2019-05-20T03:49:06.973Z,26.73
2019-05-20T03:51:35.043Z,25.17
2019-05-20T03:54:03.227Z,25.33
2019-05-20T03:56:31.325Z,23.70
2019-05-20T03:58:59.379Z,20.87
2019-05-20T04:01:27.410Z,21.23
2019-05-20T04:03:55.646Z,21.90
2019-05-20T04:06:23.935Z,21.53
2019-05-20T04:08:52.113Z,19.73
2019-05-20T04:11:20.191Z,20.70
2019-05-20T04:13:48.282Z,20.97
2019-05-20T04:16:16.399Z,20.20
2019-05-20T04:18:44.575Z,21.60
2019-05-20T04:21:12.717Z,20.57
2019-05-20T04:23:40.909Z,21.83
2019-05-20T04:26:09.089Z,22.23
2019-05-20T04:28:37.483Z,22.93
2019-05-20T04:31:05.785Z,24.50
2019-05-20T04:33:33.950Z,24.73
2019-05-20T04:36:02.100Z,25.27
2019-05-20T04:38:30.191Z,25.37
2019-05-20T04:40:58.227Z,25.83
2019-05-20T04:43:26.470Z,25.07
2019-05-20T04:45:54.693Z,24.20
2019-05-20T04:48:22.787Z,23.33
2019-05-20T04:50:51.043Z,22.73
2019-05-20T04:53:19.159Z,22.77
2019-05-20T04:55:47.295Z,21.33
2019-05-20T04:58:15.527Z,21.67
2019-05-20T05:00:52.505Z,21.50
2019-05-20T05:03:21.135Z,21.37
2019-05-20T05:05:50.341Z,22.33
2019-05-20T05:08:19.344Z,21.00
2019-05-20T05:10:47.684Z,22.30
2019-05-20T05:13:15.909Z,21.87
2019-05-20T05:15:44.190Z,20.70
2019-05-20T05:18:12.484Z,21.00
2019-05-20T05:20:40.788Z,22.13
2019-05-20T05:23:09.223Z,21.93
2019-05-20T05:25:37.452Z,22.03
2019-05-20T05:28:06.147Z,22.13
2019-05-20T05:30:35.113Z,22.07
2019-05-20T05:33:03.295Z,22.83
2019-05-20T05:35:31.519Z,21.63
2019-05-20T05:37:59.990Z,20.17
2019-05-20T05:40:30.386Z,21.50
2019-05-20T05:42:58.641Z,21.90
2019-05-20T05:45:31.347Z,20.90
2019-05-20T05:47:59.496Z,20.13
2019-05-20T05:50:27.756Z,20.23
2019-05-20T05:52:56.195Z,20.17
2019-05-20T05:55:24.509Z,19.67
2019-05-20T05:57:52.874Z,20.40
2019-05-20T06:00:22.283Z,21.03
2019-05-20T06:02:51.345Z,20.30
2019-05-20T06:05:19.612Z,20.27
2019-05-20T06:07:47.635Z,20.20
2019-05-20T06:10:15.873Z,20.07
2019-05-20T06:12:44.138Z,18.83
2019-05-20T06:15:13.803Z,18.20
2019-05-20T06:17:42.012Z,19.07
2019-05-20T06:20:10.838Z,18.30
2019-05-20T06:25:27.709Z,17.70
2019-05-20T06:27:56.174Z,17.50
2019-05-20T06:30:38.078Z,16.07
2019-05-20T06:33:06.384Z,16.30
2019-05-20T06:35:35.848Z,16.80
2019-05-20T06:38:06.694Z,15.30
2019-05-20T06:40:35.915Z,15.83
2019-05-20T06:43:04.455Z,14.67
2019-05-20T06:45:32.821Z,15.80
2019-05-20T06:48:00.981Z,13.97
2019-05-20T06:50:29.840Z,14.40
2019-05-20T06:52:58.387Z,13.20
2019-05-20T06:55:26.400Z,12.10
2019-05-20T06:57:54.592Z,13.13
2019-05-20T07:00:33.734Z,13.50
2019-05-20T07:03:02.235Z,12.50
2019-05-20T07:05:30.360Z,12.83
2019-05-20T07:08:01.433Z,13.83
2019-05-20T07:10:29.887Z,12.10
2019-05-20T07:12:58.094Z,13.47
2019-05-20T07:15:26.264Z,13.83
2019-05-20T07:17:54.361Z,14.67
2019-05-20T07:20:22.638Z,14.13
2019-05-20T07:22:55.651Z,14.00
2019-05-20T07:25:20.929Z,13.97
2019-05-20T07:27:49.375Z,15.40
2019-05-20T07:30:18.166Z,14.07
2019-05-20T07:32:46.405Z,13.80
2019-05-20T07:35:28.653Z,13.37
2019-05-20T07:37:44.990Z,13.80
2019-05-20T07:40:17.331Z,13.37
2019-05-20T07:42:45.613Z,13.30
2019-05-20T07:45:13.881Z,13.23
2019-05-20T07:47:42.468Z,12.70
2019-05-20T07:50:11.621Z,14.40
2019-05-20T07:52:40.167Z,15.40
2019-05-20T07:55:08.517Z,13.83
2019-05-20T07:57:40.126Z,12.53
2019-05-20T08:00:09.095Z,13.57
2019-05-20T08:02:37.801Z,13.13
2019-05-20T08:05:06.751Z,12.47
2019-05-20T08:07:50.359Z,13.87
2019-05-20T08:10:06.161Z,12.20
2019-05-20T08:12:34.444Z,13.73
2019-05-20T08:15:03.207Z,14.03
2019-05-20T08:17:31.351Z,13.83
2019-05-20T08:19:59.506Z,13.10
2019-05-20T08:22:27.647Z,13.83
2019-05-20T08:24:55.623Z,13.50
2019-05-20T08:27:23.703Z,12.57
2019-05-20T08:29:51.801Z,11.80
2019-05-20T08:32:19.992Z,12.50
2019-05-20T08:34:48.231Z,13.57
2019-05-20T08:37:16.647Z,13.40
2019-05-20T08:39:45.543Z,13.53
2019-05-20T08:42:13.829Z,14.00
2019-05-20T08:44:41.842Z,15.87
2019-05-20T08:47:09.899Z,14.07
2019-05-20T08:49:38.389Z,12.83
2019-05-20T08:52:07.824Z,12.27
2019-05-20T08:54:39.944Z,12.23
2019-05-20T08:57:05.861Z,12.93
2019-05-20T08:59:34.166Z,12.50
2019-05-20T09:02:02.576Z,12.33
2019-05-20T09:04:30.658Z,13.20
2019-05-20T09:06:58.883Z,12.10
2019-05-20T09:09:27.502Z,11.73
2019-05-20T09:11:56.226Z,11.83
2019-05-20T09:14:24.318Z,12.77
2019-05-20T09:16:52.353Z,11.83
2019-05-20T09:19:20.560Z,12.13
2019-05-20T09:21:48.673Z,12.50
2019-05-20T09:24:18.953Z,12.13
2019-05-20T09:26:47.220Z,13.13
2019-05-20T09:29:15.319Z,14.13
2019-05-20T09:31:43.578Z,12.37
2019-05-20T09:34:11.732Z,11.53
2019-05-20T09:36:39.989Z,11.67
2019-05-20T09:39:08.341Z,12.40
2019-05-20T09:41:36.575Z,12.43
2019-05-20T09:44:05.006Z,12.47
2019-05-20T09:46:33.179Z,11.50
2019-05-20T09:49:01.440Z,11.93
2019-05-20T09:51:29.619Z,11.50
2019-05-20T09:53:57.833Z,13.10
2019-05-20T09:56:25.899Z,12.27
2019-05-20T09:58:54.030Z,12.57
2019-05-20T10:01:22.252Z,12.40
2019-05-20T10:03:50.801Z,11.50
2019-05-20T10:06:19.195Z,11.83
2019-05-20T10:08:47.356Z,12.37
2019-05-20T10:11:16.696Z,12.07
2019-05-20T10:13:45.872Z,11.70
2019-05-20T10:16:13.951Z,11.50
2019-05-20T10:18:42.152Z,11.80
2019-05-20T10:21:10.185Z,12.00
2019-05-20T10:23:38.262Z,12.00
2019-05-20T10:26:06.658Z,12.90
2019-05-20T10:28:34.683Z,12.23
2019-05-20T10:31:02.910Z,13.63
2019-05-20T10:33:31.044Z,12.00
2019-05-20T10:35:59.169Z,12.73
2019-05-20T10:38:27.324Z,12.67
2019-05-20T10:40:55.413Z,12.57
2019-05-20T10:43:23.488Z,12.40
2019-05-20T10:45:51.586Z,13.17
2019-05-20T10:48:19.953Z,13.30
2019-05-20T10:50:48.219Z,14.30
2019-05-20T10:53:16.630Z,13.45
2019-05-20T10:55:45.073Z,14.33
2019-05-20T10:58:13.202Z,13.10
2019-05-20T11:01:01.062Z,14.10
2019-05-20T11:03:13.072Z,16.00
2019-05-20T11:05:41.220Z,14.23
2019-05-20T11:08:09.406Z,14.27
2019-05-20T11:10:37.930Z,15.30
2019-05-20T11:13:06.050Z,16.17
2019-05-20T11:15:34.456Z,14.77
2019-05-20T11:18:02.770Z,15.30
2019-05-20T11:20:30.933Z,13.80
2019-05-20T11:23:01.214Z,14.37
2019-05-20T11:25:29.068Z,13.97
2019-05-20T11:27:57.098Z,15.03
2019-05-20T11:30:25.385Z,13.47
2019-05-20T11:32:53.469Z,15.00
2019-05-20T11:35:21.687Z,13.40
2019-05-20T11:37:49.792Z,14.30
2019-05-20T11:40:18.400Z,12.73
2019-05-20T11:42:46.544Z,13.30
2019-05-20T11:45:16.472Z,13.37
2019-05-20T11:47:44.678Z,12.83
2019-05-20T11:50:16.800Z,12.13
2019-05-20T11:52:45.848Z,12.17
2019-05-20T11:55:14.595Z,13.07
2019-05-20T11:57:43.000Z,13.50
2019-05-20T12:00:13.018Z,12.83
2019-05-20T12:02:41.353Z,13.83
2019-05-20T12:05:09.754Z,13.20
2019-05-20T12:07:38.058Z,12.97
2019-05-20T12:10:08.431Z,12.97
2019-05-20T12:12:37.067Z,13.50
2019-05-20T12:15:07.094Z,13.13
2019-05-20T12:17:36.072Z,12.90
2019-05-20T12:20:06.143Z,13.47
2019-05-20T12:22:35.055Z,12.40
2019-05-20T12:25:03.374Z,13.30
2019-05-20T12:27:31.490Z,12.33
2019-05-20T12:29:59.547Z,12.73
2019-05-20T12:32:27.643Z,12.33
2019-05-20T12:34:56.085Z,13.13
2019-05-20T12:37:24.339Z,12.43
2019-05-20T12:40:05.902Z,13.30
2019-05-20T12:42:22.739Z,12.83
2019-05-20T12:44:51.396Z,12.90
2019-05-20T12:47:19.632Z,12.10
2019-05-20T12:49:47.715Z,13.13
2019-05-20T12:52:15.782Z,12.90
2019-05-20T12:54:43.882Z,13.20
2019-05-20T12:57:12.015Z,12.63
2019-05-20T12:59:40.067Z,11.60
2019-05-20T13:02:08.256Z,12.33
2019-05-20T13:04:36.705Z,12.82
2019-05-20T13:07:04.979Z,12.63
2019-05-20T13:09:33.108Z,12.13
2019-05-20T13:12:01.464Z,13.00
2019-05-20T13:14:31.237Z,13.22
2019-05-20T13:17:00.733Z,10.90
2019-05-20T13:19:29.158Z,12.80
2019-05-20T13:21:57.387Z,12.30
2019-05-20T13:24:25.820Z,14.00
2019-05-20T13:26:54.020Z,12.43
2019-05-20T13:29:22.153Z,12.33
2019-05-20T13:31:50.533Z,13.50
2019-05-20T13:34:19.665Z,12.60
2019-05-20T13:36:47.705Z,12.85
2019-05-20T13:39:15.775Z,13.58
2019-05-20T13:41:44.112Z,13.97
2019-05-20T13:44:12.244Z,14.30
2019-05-20T13:46:40.360Z,13.80
2019-05-20T13:49:08.475Z,13.60
2019-05-20T13:51:38.719Z,14.75
2019-05-20T13:54:07.423Z,14.20
2019-05-20T13:56:35.830Z,14.63
2019-05-20T13:59:04.059Z,14.65
2019-05-20T14:01:33.247Z,15.15
2019-05-20T14:04:01.627Z,14.53
2019-05-20T14:06:29.936Z,15.60
2019-05-20T14:08:58.100Z,15.23
2019-05-20T14:11:34.062Z,16.30
2019-05-20T14:13:56.448Z,15.63
2019-05-20T14:16:24.740Z,13.53
2019-05-20T14:18:54.132Z,15.60
2019-05-20T14:21:22.425Z,15.43
2019-05-20T14:23:50.630Z,15.13
2019-05-20T14:26:19.004Z,16.70
2019-05-20T14:28:48.743Z,15.25
2019-05-20T14:31:16.930Z,15.30
2019-05-20T14:33:45.151Z,14.45
2019-05-20T14:36:35.934Z,14.60
2019-05-20T14:38:43.495Z,13.60
2019-05-20T14:41:20.849Z,12.93
2019-05-20T14:43:41.728Z,14.80
2019-05-20T14:46:10.061Z,14.98
2019-05-20T14:48:38.264Z,13.10
2019-05-20T14:51:06.557Z,14.60
2019-05-20T14:53:34.892Z,13.93
2019-05-20T14:56:03.309Z,14.45
2019-05-20T14:58:31.832Z,12.90
2019-05-20T15:01:01.892Z,13.10
2019-05-20T15:03:30.598Z,13.00
2019-05-20T15:05:59.862Z,13.50
2019-05-20T15:08:28.180Z,13.62
2019-05-20T15:10:56.303Z,13.28
2019-05-20T15:13:25.142Z,13.93
2019-05-20T15:15:53.416Z,14.28
2019-05-20T15:18:22.126Z,12.70
2019-05-20T15:20:50.353Z,13.65
2019-05-20T15:23:18.556Z,14.38
2019-05-20T15:25:49.546Z,13.08
2019-05-20T15:28:17.978Z,14.38
2019-05-20T15:30:46.358Z,13.93
2019-05-20T15:33:14.595Z,14.37
2019-05-20T15:35:42.845Z,14.80
2019-05-20T15:38:10.933Z,13.80
2019-05-20T15:40:38.999Z,14.40
2019-05-20T15:43:07.135Z,13.93
2019-05-20T15:45:35.468Z,12.35
2019-05-20T15:48:03.547Z,13.70
2019-05-20T15:50:31.653Z,12.85
2019-05-20T15:52:59.850Z,13.20
2019-05-20T15:55:28.156Z,12.80
2019-05-20T15:57:56.196Z,12.55
2019-05-20T16:00:24.323Z,13.50
2019-05-20T16:02:52.467Z,13.70
2019-05-20T16:05:20.595Z,13.28
2019-05-20T16:07:48.917Z,13.85
2019-05-20T16:10:17.146Z,14.23
2019-05-20T16:12:45.293Z,11.78
2019-05-20T16:15:13.908Z,11.63
2019-05-20T16:17:42.183Z,12.15
2019-05-20T16:20:10.535Z,12.20
2019-05-20T16:22:38.825Z,11.40
2019-05-20T16:25:07.677Z,11.95
2019-05-20T16:27:36.838Z,11.80
2019-05-20T16:30:07.336Z,11.88
2019-05-20T16:32:35.946Z,11.22
2019-05-20T16:35:05.233Z,12.15
2019-05-20T16:37:34.497Z,11.45
2019-05-20T16:40:03.807Z,11.57
2019-05-20T16:42:32.194Z,12.03
2019-05-20T16:45:00.220Z,12.30
2019-05-20T16:47:28.453Z,13.30
2019-05-20T16:49:56.544Z,11.78
2019-05-20T16:52:24.574Z,12.07
2019-05-20T16:54:52.729Z,11.75
2019-05-20T16:57:20.874Z,11.12
2019-05-20T16:59:49.043Z,10.93
2019-05-20T17:02:17.375Z,11.28
2019-05-20T17:04:45.535Z,11.18
2019-05-20T17:07:13.613Z,10.63
2019-05-20T17:09:41.795Z,10.48
2019-05-20T17:12:09.863Z,11.15
2019-05-20T17:14:37.983Z,10.80
2019-05-20T17:17:06.286Z,10.32
2019-05-20T17:19:34.377Z,10.03
2019-05-20T17:22:02.553Z,9.65
2019-05-20T17:24:31.247Z,10.50
2019-05-20T17:26:59.493Z,9.98
2019-05-20T17:29:27.788Z,9.70
2019-05-20T17:31:56.010Z,9.65
2019-05-20T17:34:24.282Z,10.18
2019-05-20T17:36:52.528Z,10.75
2019-05-20T17:39:20.722Z,10.72
2019-05-20T17:41:48.777Z,11.03
2019-05-20T17:44:17.018Z,9.18
2019-05-20T17:46:45.049Z,10.35
2019-05-20T17:49:14.294Z,9.93
2019-05-20T17:51:43.382Z,10.63
2019-05-20T17:54:11.701Z,10.23
2019-05-20T17:56:39.938Z,10.68
2019-05-20T17:59:08.115Z,9.48
2019-05-20T18:01:36.326Z,9.73
2019-05-20T18:04:04.793Z,9.93
2019-05-20T18:06:32.989Z,10.28
2019-05-20T18:09:02.238Z,9.53
2019-05-20T18:11:32.449Z,10.40
2019-05-20T18:14:00.647Z,10.68
2019-05-20T18:16:28.991Z,10.43
2019-05-20T18:18:57.218Z,10.75
2019-05-20T18:21:25.332Z,10.48
2019-05-20T18:23:53.574Z,9.50
2019-05-20T18:26:21.618Z,9.67
2019-05-20T18:28:49.908Z,10.05
2019-05-20T18:31:31.277Z,10.40
2019-05-20T18:33:48.030Z,10.28
2019-05-20T18:36:16.312Z,10.70
2019-05-20T18:38:49.190Z,10.50
2019-05-20T18:41:15.569Z,11.18
2019-05-20T18:43:43.654Z,10.43
2019-05-20T18:46:11.717Z,10.03
2019-05-20T18:48:40.017Z,10.50
2019-05-20T18:51:08.571Z,10.35
2019-05-20T18:53:36.907Z,10.30
2019-05-20T18:56:05.231Z,9.77
2019-05-20T18:58:33.705Z,9.33
2019-05-20T19:01:02.025Z,9.53
2019-05-20T19:03:30.462Z,10.38
2019-05-20T19:05:58.679Z,10.30
2019-05-20T19:08:26.759Z,11.10
2019-05-20T19:10:56.086Z,9.85
2019-05-20T19:13:24.227Z,11.63
2019-05-20T19:15:52.458Z,10.80
2019-05-20T19:18:20.785Z,11.47
2019-05-20T19:20:49.134Z,11.55
2019-05-20T19:23:17.394Z,12.23
2019-05-20T19:25:45.508Z,12.03
2019-05-20T19:28:13.671Z,11.50
2019-05-20T19:30:41.965Z,11.78
2019-05-20T19:33:10.039Z,11.37
2019-05-20T19:35:39.413Z,11.03
2019-05-20T19:38:07.693Z,10.40
2019-05-20T19:40:36.089Z,10.18
2019-05-20T19:43:04.435Z,10.63
2019-05-20T19:45:32.636Z,9.88
2019-05-20T19:48:00.903Z,10.80
2019-05-20T19:50:28.953Z,11.00
2019-05-20T19:52:57.069Z,10.95
2019-05-20T19:55:25.271Z,11.43
2019-05-20T19:57:53.443Z,11.48
2019-05-20T20:00:21.728Z,11.45
2019-05-20T20:02:49.817Z,10.20
2019-05-20T20:05:18.068Z,10.53
2019-05-20T20:07:46.308Z,10.30
2019-05-20T20:10:14.702Z,10.35
2019-05-20T20:12:42.948Z,10.20
2019-05-20T20:15:17.334Z,9.80
2019-05-20T20:17:45.704Z,9.07
2019-05-20T20:20:15.050Z,9.17
2019-05-20T20:22:43.394Z,8.90
2019-05-20T20:25:11.827Z,8.83
2019-05-20T20:27:40.022Z,8.00
2019-05-20T20:30:08.715Z,8.03
2019-05-20T20:32:38.663Z,7.10
2019-05-20T20:35:07.547Z,7.67
2019-05-20T20:37:35.608Z,7.10
2019-05-20T20:40:03.987Z,6.77
2019-05-20T20:42:35.723Z,6.72
2019-05-20T20:45:05.147Z,6.40
2019-05-20T20:47:41.141Z,6.07
2019-05-20T20:50:03.951Z,5.87
2019-05-20T20:52:32.615Z,5.97
2019-05-20T20:55:00.989Z,5.87
2019-05-20T20:57:29.522Z,5.27
2019-05-20T20:59:57.736Z,5.77
2019-05-20T21:02:25.893Z,5.17
2019-05-20T21:04:53.990Z,5.67
2019-05-20T21:07:22.050Z,5.80
2019-05-20T21:09:50.522Z,6.00
2019-05-20T21:12:18.709Z,5.70
2019-05-20T21:14:47.126Z,5.20
2019-05-20T21:17:15.173Z,5.13
2019-05-20T21:19:43.332Z,5.30
2019-05-20T21:22:12.018Z,4.87
2019-05-20T21:24:40.275Z,5.60
2019-05-20T21:27:08.699Z,5.80
2019-05-20T21:29:37.012Z,5.37
2019-05-20T21:32:05.491Z,5.73
2019-05-20T21:34:34.887Z,5.57
2019-05-20T21:37:03.177Z,5.17
2019-05-20T21:39:31.397Z,5.30
2019-05-20T21:41:59.457Z,4.73
2019-05-20T21:44:27.562Z,5.20
2019-05-20T21:46:56.304Z,5.23
2019-05-20T21:49:25.738Z,5.20
2019-05-20T21:51:54.184Z,5.00
2019-05-20T21:54:22.845Z,5.20
2019-05-20T21:56:51.074Z,5.55
2019-05-20T21:59:19.141Z,4.87
2019-05-20T22:01:47.324Z,5.00
2019-05-20T22:04:15.423Z,5.10
2019-05-20T22:06:43.654Z,5.33
2019-05-20T22:09:11.760Z,5.03
2019-05-20T22:11:40.048Z,5.00
2019-05-20T22:14:08.311Z,5.17
2019-05-20T22:16:36.724Z,5.77
2019-05-20T22:19:05.030Z,5.43
2019-05-20T22:21:39.799Z,5.27
2019-05-20T22:24:07.893Z,5.47
2019-05-20T22:26:36.060Z,5.60
2019-05-20T22:29:04.118Z,5.20
2019-05-20T22:31:32.178Z,5.37
2019-05-20T22:34:00.281Z,5.33
2019-05-20T22:36:28.440Z,5.70
2019-05-20T22:38:56.531Z,5.20
2019-05-20T22:41:24.603Z,5.43
2019-05-20T22:43:52.850Z,5.30
2019-05-20T22:46:20.974Z,5.00
2019-05-20T22:48:49.183Z,6.03
2019-05-20T22:51:17.589Z,5.40
2019-05-20T22:53:45.769Z,6.07
2019-05-20T22:56:13.842Z,5.40
2019-05-20T22:58:41.908Z,5.23
2019-05-20T23:01:10.091Z,5.63
2019-05-20T23:03:38.164Z,5.43
2019-05-20T23:06:06.316Z,5.80
2019-05-20T23:08:34.414Z,5.80
2019-05-20T23:11:02.578Z,6.07
2019-05-20T23:13:30.616Z,5.57
2019-05-20T23:15:58.711Z,6.03
2019-05-20T23:18:26.736Z,6.23
2019-05-20T23:20:54.803Z,6.10
2019-05-20T23:23:22.881Z,6.10
2019-05-20T23:25:52.791Z,5.93
2019-05-20T23:28:20.968Z,6.60
2019-05-20T23:30:49.120Z,6.40
2019-05-20T23:33:17.146Z,6.70
2019-05-20T23:35:45.285Z,6.87
2019-05-20T23:38:13.480Z,6.23
2019-05-20T23:40:41.720Z,6.10
2019-05-20T23:43:10.832Z,6.77
2019-05-20T23:45:39.030Z,6.03
2019-05-20T23:48:08.036Z,5.90
2019-05-20T23:50:36.280Z,6.20
2019-05-20T23:53:04.574Z,6.30
2019-05-20T23:55:32.860Z,6.00
2019-05-20T23:58:01.184Z,5.90
